createdAt,value
2018-10-11T00:02:44.735Z,90.199997
2018-10-11T00:07:47.118Z,90.400002
2018-10-11T00:12:49.301Z,90.5
2018-10-11T00:17:51.487Z,91.699997
2018-10-11T00:22:53.845Z,91.5
2018-10-11T00:27:56.178Z,91.199997
2018-10-11T00:32:58.503Z,91.699997
2018-10-11T00:38:00.767Z,91.800003
2018-10-11T00:43:03.349Z,92.5
2018-10-11T00:48:05.322Z,91.900002
2018-10-11T00:53:07.652Z,92.300003
2018-10-11T00:58:09.963Z,93
2018-10-11T01:03:12.232Z,93.800003
2018-10-11T01:08:14.440Z,94.5
2018-10-11T01:13:16.795Z,94.199997
2018-10-11T01:18:19.095Z,94
2018-10-11T01:23:21.446Z,93.800003
2018-10-11T01:28:23.620Z,93.300003
2018-10-11T01:33:26.063Z,93.300003
2018-10-11T01:38:28.276Z,93
2018-10-11T01:43:30.487Z,93.199997
2018-10-11T01:48:32.939Z,93.300003
2018-10-11T01:53:36.202Z,93.400002
2018-10-11T01:58:37.386Z,93.400002
2018-10-11T02:03:39.755Z,93.5
2018-10-11T02:08:41.962Z,93.599998
2018-10-11T02:13:44.342Z,93.5
2018-10-11T02:18:46.681Z,93.400002
2018-10-11T02:23:49.044Z,93.199997
2018-10-11T02:28:51.171Z,92.800003
2018-10-11T02:33:53.588Z,92.300003
2018-10-11T02:43:58.112Z,91.599998
2018-10-11T02:49:00.320Z,91.400002
2018-10-11T02:54:02.644Z,91.699997
2018-10-11T02:59:05.394Z,91.800003
2018-10-11T03:04:07.257Z,91.400002
2018-10-11T03:09:09.600Z,91.699997
2018-10-11T03:14:13.661Z,91.800003
2018-10-11T03:19:15.705Z,91.800003
2018-10-11T03:24:16.561Z,91.900002
2018-10-11T03:29:20.180Z,91.800003
2018-10-11T03:34:21.035Z,91.699997
2018-10-11T03:39:23.341Z,91.699997
2018-10-11T03:44:25.603Z,91.599998
2018-10-11T03:49:27.916Z,91.5
2018-10-11T03:54:30.296Z,91.300003
2018-10-11T03:59:32.408Z,91.300003
2018-10-11T04:04:34.728Z,91.199997
2018-10-11T04:09:37.128Z,91.099998
2018-10-11T04:14:39.346Z,90.800003
2018-10-11T04:19:41.628Z,90.300003
2018-10-11T04:24:44.054Z,89.900002
2018-10-11T04:29:47.711Z,89.800003
2018-10-11T04:34:48.489Z,89.5
2018-10-11T04:39:52.654Z,89.300003
2018-10-11T04:44:53.076Z,89.199997
2018-10-11T04:49:55.444Z,88.800003
2018-10-11T04:54:57.708Z,88.5
2018-10-11T05:00:00.068Z,87.400002
2018-10-11T05:05:02.293Z,86.300003
2018-10-11T05:10:04.653Z,85.300003
2018-10-11T05:15:06.927Z,84.599998
2018-10-11T05:20:09.304Z,83.099998
2018-10-11T05:25:11.445Z,81.900002
2018-10-11T05:30:13.852Z,81.300003
2018-10-11T05:35:16.089Z,81.300003
2018-10-11T05:40:18.415Z,81.5
2018-10-11T05:45:20.593Z,81.5
2018-10-11T05:50:23.314Z,81
2018-10-11T05:55:25.206Z,80.099998
2018-10-11T06:00:27.469Z,79.699997
2018-10-11T06:05:29.861Z,79.400002
2018-10-11T06:10:32.154Z,79
2018-10-11T06:15:34.421Z,79.199997
2018-10-11T06:20:36.813Z,79.099998
2018-10-11T06:25:40.099Z,79.300003
2018-10-11T06:30:41.397Z,79.900002
2018-10-11T06:35:43.843Z,80.699997
2018-10-11T06:40:45.966Z,80.900002
2018-10-11T06:45:48.178Z,81.400002
2018-10-11T06:50:51.555Z,82.599998
2018-10-11T06:55:52.880Z,83.599998
2018-10-11T07:00:55.154Z,83.300003
2018-10-11T07:05:57.308Z,84.5
2018-10-11T07:10:59.678Z,85.599998
2018-10-11T07:16:02.062Z,87
2018-10-11T07:21:04.261Z,88.900002
2018-10-11T07:26:06.552Z,89.699997
2018-10-11T07:31:08.998Z,90.800003
2018-10-11T07:36:11.249Z,91.800003
2018-10-11T07:41:13.433Z,91.900002
2018-10-11T07:46:15.668Z,94.099998
2018-10-11T07:51:18.078Z,94.900002
2018-10-11T07:56:20.419Z,97.400002
2018-10-11T08:01:22.702Z,99.699997
2018-10-11T08:06:24.850Z,99.900002
2018-10-11T08:11:27.434Z,99.900002
2018-10-11T08:16:29.634Z,99.900002
2018-10-11T08:21:31.828Z,99.900002
2018-10-11T08:26:34.357Z,99.900002
2018-10-11T08:31:36.382Z,99.900002
2018-10-11T08:36:38.796Z,99.900002
2018-10-11T08:41:41.003Z,99.900002
2018-10-11T08:46:43.236Z,99.900002
2018-10-11T08:51:45.568Z,99.900002
2018-10-11T08:56:47.885Z,99.900002
2018-10-11T09:01:50.258Z,99.900002
2018-10-11T09:06:52.428Z,99.900002
2018-10-11T09:11:54.729Z,99.900002
2018-10-11T09:16:56.977Z,99.900002
2018-10-11T09:21:59.418Z,99.900002
2018-10-11T09:27:01.632Z,95.400002
2018-10-11T09:32:04.099Z,96.199997
2018-10-11T09:37:06.240Z,94.900002
2018-10-11T09:42:08.671Z,95.900002
2018-10-11T09:47:12.014Z,96.300003
2018-10-11T09:52:13.143Z,90.599998
2018-10-11T09:57:15.395Z,83.300003
2018-10-11T10:02:17.688Z,80.699997
2018-10-11T10:07:20.022Z,80.5
2018-10-11T10:12:22.306Z,75.400002
2018-10-11T10:17:24.511Z,75
2018-10-11T10:22:27.005Z,71.300003
2018-10-11T10:27:29.214Z,70.300003
2018-10-11T10:32:31.485Z,68
2018-10-11T10:37:33.707Z,66.699997
2018-10-11T10:42:36.070Z,65.099998
2018-10-11T10:47:38.339Z,64.5
2018-10-11T10:52:40.531Z,62.799999
2018-10-11T10:57:43.008Z,65.099998
2018-10-11T11:02:45.175Z,64
2018-10-11T11:07:47.459Z,60.700001
2018-10-11T11:12:49.807Z,56.900002
2018-10-11T11:17:52.237Z,47.5
2018-10-11T11:22:54.837Z,50.299999
2018-10-11T11:27:56.707Z,43.200001
2018-10-11T11:32:59.025Z,40.599998
2018-10-11T11:38:01.281Z,40.799999
2018-10-11T11:43:03.549Z,39.599998
2018-10-11T11:48:05.986Z,38.400002
2018-10-11T11:53:08.210Z,37.799999
2018-10-11T11:58:10.399Z,39.200001
2018-10-11T12:03:12.743Z,36.400002
2018-10-11T12:08:14.969Z,37.099998
2018-10-11T12:13:17.438Z,38.599998
2018-10-11T12:18:19.629Z,37.099998
2018-10-11T12:23:21.990Z,37.700001
2018-10-11T12:28:24.204Z,36.5
2018-10-11T12:33:26.601Z,37.200001
2018-10-11T12:38:28.807Z,37.200001
2018-10-11T12:43:31.249Z,36
2018-10-11T12:48:33.329Z,35.799999
2018-10-11T12:53:35.738Z,37.599998
2018-10-11T12:58:37.958Z,36.099998
2018-10-11T13:03:40.243Z,36.799999
2018-10-11T13:08:42.542Z,36.400002
2018-10-11T13:13:47.860Z,38.599998
2018-10-11T13:18:47.159Z,38.299999
2018-10-11T13:23:49.406Z,37.400002
2018-10-11T13:28:51.855Z,37.200001
2018-10-11T13:33:54.135Z,36.5
2018-10-11T13:38:56.471Z,37.599998
2018-10-11T13:43:58.651Z,37.400002
2018-10-11T13:49:00.876Z,37.200001
2018-10-11T13:54:03.328Z,36.799999
2018-10-11T13:59:08.643Z,37.700001
2018-10-11T14:04:07.844Z,38.200001
2018-10-11T14:09:10.054Z,39.099998
2018-10-11T14:14:12.436Z,39.299999
2018-10-11T14:19:14.646Z,40.299999
2018-10-11T14:24:17.153Z,42.099998
2018-10-11T14:29:19.360Z,43.099998
2018-10-11T14:34:21.572Z,42.599998
2018-10-11T14:39:23.867Z,43.5
2018-10-11T14:44:26.229Z,44.099998
2018-10-11T14:49:28.492Z,43.799999
2018-10-11T14:54:30.816Z,45.900002
2018-10-11T14:59:33.233Z,46.900002
2018-10-11T15:04:35.380Z,46.400002
2018-10-11T15:09:37.552Z,46.5
2018-10-11T15:14:41.363Z,46.900002
2018-10-11T15:19:42.183Z,47.5
2018-10-11T15:24:44.608Z,47.799999
2018-10-11T15:29:46.892Z,48
2018-10-11T15:34:49.492Z,48.599998
2018-10-11T15:39:51.441Z,47.299999
2018-10-11T15:44:53.639Z,48.299999
2018-10-11T15:49:56.054Z,48.299999
2018-10-11T15:54:59.432Z,49.099998
2018-10-11T16:00:00.725Z,49.599998
2018-10-11T16:05:02.888Z,50.200001
2018-10-11T16:10:05.218Z,51.200001
2018-10-11T16:15:07.522Z,51.700001
2018-10-11T16:20:09.858Z,52.5
2018-10-11T16:25:12.040Z,52.799999
2018-10-11T16:30:14.360Z,53.299999
2018-10-11T16:35:16.656Z,54.299999
2018-10-11T16:40:18.913Z,54.799999
2018-10-11T16:45:21.323Z,55.299999
2018-10-11T16:50:23.587Z,55.5
2018-10-11T16:55:25.787Z,56.099998
2018-10-11T17:00:28.139Z,56.700001
2018-10-11T17:05:30.346Z,57.5
2018-10-11T17:10:32.854Z,57.900002
2018-10-11T17:15:35.009Z,58.900002
2018-10-11T17:20:37.323Z,59.599998
2018-10-11T17:25:39.620Z,59.700001
2018-10-11T17:30:41.882Z,60.5
2018-10-11T17:35:44.167Z,61.299999
2018-10-11T17:40:46.471Z,61.700001
2018-10-11T17:45:48.787Z,62
2018-10-11T17:50:51.123Z,62.599998
2018-10-11T17:55:54.801Z,62.700001
2018-10-11T18:00:56.833Z,63.299999
2018-10-11T18:11:00.286Z,64.099998
2018-10-11T18:16:02.659Z,64.800003
2018-10-11T18:21:04.908Z,65.900002
2018-10-11T18:26:07.107Z,66.900002
2018-10-11T18:31:09.450Z,67.099998
2018-10-11T18:36:11.739Z,67.699997
2018-10-11T18:41:13.939Z,68.5
2018-10-11T18:46:16.356Z,69.5
2018-10-11T18:51:18.627Z,70
2018-10-11T18:56:20.932Z,70.699997
2018-10-11T19:01:23.163Z,70.800003
2018-10-11T19:06:25.408Z,71.300003
2018-10-11T19:11:27.782Z,71.699997
2018-10-11T19:16:30.039Z,72.400002
2018-10-11T19:21:32.312Z,72.699997
2018-10-11T19:26:34.734Z,73
2018-10-11T19:31:38.787Z,73.5
2018-10-11T19:36:39.273Z,73.900002
2018-10-11T19:41:41.656Z,74
2018-10-11T19:46:43.900Z,74.300003
2018-10-11T19:51:46.143Z,74.599998
2018-10-11T19:56:48.444Z,74.800003
2018-10-11T20:06:52.948Z,75.300003
2018-10-11T20:11:55.323Z,75.400002
2018-10-11T20:16:57.643Z,75.699997
2018-10-11T20:22:00.160Z,75.800003
2018-10-11T20:27:02.351Z,75.900002
2018-10-11T20:32:04.644Z,75.400002
2018-10-11T20:37:06.885Z,75.400002
2018-10-11T20:42:09.011Z,75
2018-10-11T20:47:11.443Z,74.900002
2018-10-11T20:52:13.821Z,74.5
2018-10-11T20:57:15.992Z,73.699997
2018-10-11T21:02:18.310Z,73.199997
2018-10-11T21:07:21.687Z,73
2018-10-11T21:12:22.854Z,72.800003
2018-10-11T21:17:25.169Z,73.099998
2018-10-11T21:22:27.559Z,73.099998
2018-10-11T21:27:29.850Z,73.400002
2018-10-11T21:32:32.028Z,72.5
2018-10-11T21:37:34.333Z,72.099998
2018-10-11T21:42:36.687Z,71.699997
2018-10-11T21:47:40.842Z,70.699997
2018-10-11T21:52:41.222Z,70.199997
2018-10-11T21:57:43.508Z,69.900002
2018-10-11T22:02:45.725Z,70.099998
2018-10-11T22:07:48.189Z,73.800003
2018-10-11T22:12:50.429Z,85.699997
2018-10-11T22:17:52.667Z,96.800003
2018-10-11T22:22:55.037Z,99.900002
2018-10-11T22:27:57.310Z,99.900002
2018-10-11T22:32:59.612Z,99.900002
2018-10-11T22:38:02.000Z,99.900002
2018-10-11T22:43:04.209Z,99.900002
2018-10-11T22:48:06.493Z,99.900002
2018-10-11T22:53:08.758Z,99.900002
2018-10-11T22:58:11.125Z,99.900002
2018-10-11T23:03:13.320Z,99.900002
2018-10-11T23:08:15.622Z,99.900002
2018-10-11T23:13:17.906Z,99.900002
2018-10-11T23:18:21.712Z,99.900002
2018-10-11T23:23:22.595Z,99.900002
2018-10-11T23:28:24.829Z,99.900002
2018-10-11T23:33:27.133Z,99.900002
2018-10-11T23:38:29.431Z,99.900002
2018-10-11T23:43:31.601Z,99.900002
2018-10-11T23:48:33.999Z,99.900002
2018-10-11T23:53:36.296Z,99.900002
2018-10-11T23:58:38.541Z,99.900002
